Samba — WDI6615 — position and weather

sailwx.info

Track history (hours):
 
Tides and Currents Weather Stations Pressure Air Temp Water Temp Dewpoint Dewpoint Depression Visibility Wind Speed Wind Dir Waves Ship Positions

Samba

Owner: Cook, Allison L, Cataumet, MA. More information available from US FCC via Universal Licensing System and Coast Guard Vessel Documentation Center.

Last reported at 2018-Mar-17 13:40 UTC. Time now 2018-Apr-26 22:59 UTC.
Position N 24°19' W 076°40'.
Warning: this ship's position is 40 days out of date.

Length 12 m.

Type: Sailing vessel. MMSI: 367720470.

Date/timePositionNaut miles runAvg speedWind from/ knotsBaromVisibWave heightAir tempDewpointWater temp
2018-Mar-17 13:40N 24°19' W 076°40'1 6.6
2018-Mar-17 13:29N 24°18' W 076°39'3 5.8
2018-Mar-17 13:00N 24°16' W 076°36'3 5.7
2018-Mar-17 12:30N 24°14' W 076°34'3 5.8
2018-Mar-17 12:01N 24°13' W 076°32'3 5.6
2018-Mar-17 11:31N 24°11' W 076°29'2 0.1
2018-Mar-16 12:22N 24°11' W 076°27'1 2.1
2018-Mar-16 12:00N 24°10' W 076°27'1 0.0
2018-Mar-14 19:18N 24°11' W 076°27'0 0.0
2018-Mar-14 19:00N 24°11' W 076°27'0 0.0
2018-Mar-14 18:30N 24°11' W 076°27'0 0.0
2018-Mar-14 18:00N 24°11' W 076°27'0 0.0
2018-Mar-14 17:30N 24°11' W 076°27'0 0.0
2018-Mar-14 17:00N 24°11' W 076°27'0 0.0
2018-Mar-14 16:30N 24°11' W 076°27'0 0.0
2018-Mar-14 16:00N 24°11' W 076°27'  
2018-Mar-07 14:01N 24°14' W 076°34'0 5.9
2018-Mar-07 13:58N 24°14' W 076°34'  
Track history (hours):
 
Tides and Currents Weather Stations Pressure Air Temp Water Temp Dewpoint Dewpoint Depression Visibility Wind Speed Wind Dir Waves Ship Positions

Samba

Owner: Cook, Allison L, Cataumet, MA. More information available from US FCC via Universal Licensing System and Coast Guard Vessel Documentation Center.

Last reported at 2018-Mar-17 13:40 UTC. Time now 2018-Apr-26 22:59 UTC.
Position N 24°19' W 076°40'.
Warning: this ship's position is 40 days out of date.

Length 12 m.

Type: Sailing vessel. MMSI: 367720470.

Date/timePositionNaut miles runAvg speedWind from/ knotsBaromVisibWave heightAir tempDewpointWater temp
2018-Mar-17 13:40N 24°19' W 076°40'1 6.6
2018-Mar-17 13:29N 24°18' W 076°39'3 5.8
2018-Mar-17 13:00N 24°16' W 076°36'3 5.7
2018-Mar-17 12:30N 24°14' W 076°34'3 5.8
2018-Mar-17 12:01N 24°13' W 076°32'3 5.6
2018-Mar-17 11:31N 24°11' W 076°29'2 0.1
2018-Mar-16 12:22N 24°11' W 076°27'1 2.1
2018-Mar-16 12:00N 24°10' W 076°27'1 0.0
2018-Mar-14 19:18N 24°11' W 076°27'0 0.0
2018-Mar-14 19:00N 24°11' W 076°27'0 0.0
2018-Mar-14 18:30N 24°11' W 076°27'0 0.0
2018-Mar-14 18:00N 24°11' W 076°27'0 0.0
2018-Mar-14 17:30N 24°11' W 076°27'0 0.0
2018-Mar-14 17:00N 24°11' W 076°27'0 0.0
2018-Mar-14 16:30N 24°11' W 076°27'0 0.0
2018-Mar-14 16:00N 24°11' W 076°27'  
2018-Mar-07 14:01N 24°14' W 076°34'0 5.9
2018-Mar-07 13:58N 24°14' W 076°34'  

Dump ship's entire track history